sensor_id;sensor_type;location;lat;lon;timestamp;pressure;altitude;pressure_sealevel;temperature;humidity
11808;BME280;5961;42.640;23.380;2024-03-06T00:00:52;93784.47;;;9.12;91.87
11808;BME280;5961;42.640;23.380;2024-03-06T00:03:20;93791.25;;;9.01;91.86
11808;BME280;5961;42.640;23.380;2024-03-06T00:05:47;93786.44;;;9.03;92.04
11808;BME280;5961;42.640;23.380;2024-03-06T00:08:14;93787.75;;;8.97;92.30
11808;BME280;5961;42.640;23.380;2024-03-06T00:10:41;93785.09;;;8.97;92.21
11808;BME280;5961;42.640;23.380;2024-03-06T00:13:08;93769.59;;;8.87;92.29
11808;BME280;5961;42.640;23.380;2024-03-06T00:15:35;93781.97;;;8.95;93.09
11808;BME280;5961;42.640;23.380;2024-03-06T00:18:01;93776.88;;;8.90;92.73
11808;BME280;5961;42.640;23.380;2024-03-06T00:20:30;93787.94;;;8.92;92.72
11808;BME280;5961;42.640;23.380;2024-03-06T00:22:57;93793.22;;;8.92;92.42
11808;BME280;5961;42.640;23.380;2024-03-06T00:25:24;93793.09;;;8.89;92.71
11808;BME280;5961;42.640;23.380;2024-03-06T00:27:51;93782.84;;;8.87;92.54
11808;BME280;5961;42.640;23.380;2024-03-06T00:30:19;93762.91;;;8.69;92.84
11808;BME280;5961;42.640;23.380;2024-03-06T00:32:46;93792.34;;;8.88;92.63
11808;BME280;5961;42.640;23.380;2024-03-06T00:35:12;93795.31;;;8.87;92.80
11808;BME280;5961;42.640;23.380;2024-03-06T00:37:40;93788.09;;;8.75;93.25
11808;BME280;5961;42.640;23.380;2024-03-06T00:40:08;93782.81;;;8.75;93.19
11808;BME280;5961;42.640;23.380;2024-03-06T00:42:35;93785.66;;;8.70;93.37
11808;BME280;5961;42.640;23.380;2024-03-06T00:45:02;93788.97;;;8.67;93.75
11808;BME280;5961;42.640;23.380;2024-03-06T00:47:29;93780.50;;;8.53;94.53
11808;BME280;5961;42.640;23.380;2024-03-06T00:49:55;93784.25;;;8.52;94.66
11808;BME280;5961;42.640;23.380;2024-03-06T00:52:22;93781.16;;;8.50;94.51
11808;BME280;5961;42.640;23.380;2024-03-06T00:54:50;93779.78;;;8.44;95.15
11808;BME280;5961;42.640;23.380;2024-03-06T00:57:17;93777.16;;;8.44;95.20
11808;BME280;5961;42.640;23.380;2024-03-06T00:59:44;93782.91;;;8.46;95.26
11808;BME280;5961;42.640;23.380;2024-03-06T01:02:10;93779.78;;;8.44;95.84
11808;BME280;5961;42.640;23.380;2024-03-06T01:04:37;93781.34;;;8.45;95.84
11808;BME280;5961;42.640;23.380;2024-03-06T01:07:10;93791.75;;;8.50;95.44
11808;BME280;5961;42.640;23.380;2024-03-06T01:09:36;93793.28;;;8.51;95.36
11808;BME280;5961;42.640;23.380;2024-03-06T01:12:05;93786.56;;;8.53;95.25
11808;BME280;5961;42.640;23.380;2024-03-06T01:15:08;93796.66;;;8.60;94.83
11808;BME280;5961;42.640;23.380;2024-03-06T01:17:35;93799.09;;;8.65;94.87
11808;BME280;5961;42.640;23.380;2024-03-06T01:20:02;93799.22;;;8.68;94.61
11808;BME280;5961;42.640;23.380;2024-03-06T01:22:32;93802.22;;;8.67;94.24
11808;BME280;5961;42.640;23.380;2024-03-06T01:24:59;93797.34;;;8.69;94.78
11808;BME280;5961;42.640;23.380;2024-03-06T01:27:27;93789.91;;;8.62;94.18
11808;BME280;5961;42.640;23.380;2024-03-06T01:29:54;93800.31;;;8.67;94.40
11808;BME280;5961;42.640;23.380;2024-03-06T01:32:20;93788.50;;;8.65;94.31
11808;BME280;5961;42.640;23.380;2024-03-06T01:34:47;93801.56;;;8.70;93.94
11808;BME280;5961;42.640;23.380;2024-03-06T01:37:14;93796.25;;;8.70;93.64
11808;BME280;5961;42.640;23.380;2024-03-06T01:39:40;93793.78;;;8.65;93.80
11808;BME280;5961;42.640;23.380;2024-03-06T01:42:07;93792.91;;;8.61;94.30
11808;BME280;5961;42.640;23.380;2024-03-06T01:44:35;93792.78;;;8.57;94.81
11808;BME280;5961;42.640;23.380;2024-03-06T01:47:02;93792.66;;;8.54;94.81
11808;BME280;5961;42.640;23.380;2024-03-06T01:49:29;93790.31;;;8.52;95.22
11808;BME280;5961;42.640;23.380;2024-03-06T01:51:57;93792.97;;;8.52;95.19
11808;BME280;5961;42.640;23.380;2024-03-06T01:54:26;93785.66;;;8.49;95.07
11808;BME280;5961;42.640;23.380;2024-03-06T01:57:07;93794.47;;;8.41;95.79
11808;BME280;5961;42.640;23.380;2024-03-06T01:59:36;93779.88;;;8.35;95.84
11808;BME280;5961;42.640;23.380;2024-03-06T02:02:03;93784.38;;;8.35;96.30
11808;BME280;5961;42.640;23.380;2024-03-06T02:04:33;93791.59;;;8.25;96.32
11808;BME280;5961;42.640;23.380;2024-03-06T02:07:01;93788.09;;;8.13;96.54
11808;BME280;5961;42.640;23.380;2024-03-06T02:09:27;93784.09;;;8.07;96.65
11808;BME280;5961;42.640;23.380;2024-03-06T02:12:00;93786.94;;;8.02;96.83
11808;BME280;5961;42.640;23.380;2024-03-06T02:14:27;93792.09;;;7.98;97.03
11808;BME280;5961;42.640;23.380;2024-03-06T02:16:56;93790.09;;;7.95;97.68
11808;BME280;5961;42.640;23.380;2024-03-06T02:19:39;93789.63;;;7.93;97.48
11808;BME280;5961;42.640;23.380;2024-03-06T02:22:07;93797.78;;;7.88;97.19
11808;BME280;5961;42.640;23.380;2024-03-06T02:24:34;93803.06;;;7.88;97.58
11808;BME280;5961;42.640;23.380;2024-03-06T02:27:01;93798.06;;;7.87;97.72
11808;BME280;5961;42.640;23.380;2024-03-06T02:29:31;93796.84;;;7.84;98.01
11808;BME280;5961;42.640;23.380;2024-03-06T02:31:57;93790.91;;;7.87;97.45
11808;BME280;5961;42.640;23.380;2024-03-06T02:34:37;93804.44;;;7.94;97.01
11808;BME280;5961;42.640;23.380;2024-03-06T02:37:03;93810.16;;;7.96;96.41
11808;BME280;5961;42.640;23.380;2024-03-06T02:39:31;93800.53;;;7.92;96.39
11808;BME280;5961;42.640;23.380;2024-03-06T02:41:58;93808.34;;;7.88;96.46
11808;BME280;5961;42.640;23.380;2024-03-06T02:44:25;93807.72;;;7.91;95.93
11808;BME280;5961;42.640;23.380;2024-03-06T02:46:51;93813.91;;;7.95;95.46
11808;BME280;5961;42.640;23.380;2024-03-06T02:49:18;93812.22;;;7.91;95.61
11808;BME280;5961;42.640;23.380;2024-03-06T02:51:45;93799.69;;;7.79;95.04
11808;BME280;5961;42.640;23.380;2024-03-06T02:54:11;93812.22;;;7.61;94.11
11808;BME280;5961;42.640;23.380;2024-03-06T02:56:40;93814.78;;;7.41;94.38
11808;BME280;5961;42.640;23.380;2024-03-06T02:59:18;93809.59;;;7.15;95.45
11808;BME280;5961;42.640;23.380;2024-03-06T03:12:24;93808.00;;;6.68;98.76
11808;BME280;5961;42.640;23.380;2024-03-06T03:15:18;93809.53;;;6.60;99.53
11808;BME280;5961;42.640;23.380;2024-03-06T03:28:05;93822.91;;;6.46;100.00
11808;BME280;5961;42.640;23.380;2024-03-06T03:30:32;93820.72;;;6.48;100.00
11808;BME280;5961;42.640;23.380;2024-03-06T03:32:59;93812.66;;;6.53;100.00
11808;BME280;5961;42.640;23.380;2024-03-06T03:42:30;93820.22;;;6.81;100.00
11808;BME280;5961;42.640;23.380;2024-03-06T03:44:58;93822.72;;;6.86;100.00
11808;BME280;5961;42.640;23.380;2024-03-06T03:47:25;93827.50;;;6.92;100.00
11808;BME280;5961;42.640;23.380;2024-03-06T03:49:51;93837.94;;;6.97;100.00
11808;BME280;5961;42.640;23.380;2024-03-06T03:52:18;93833.25;;;7.03;99.85
11808;BME280;5961;42.640;23.380;2024-03-06T03:54:45;93833.56;;;7.10;99.40
11808;BME280;5961;42.640;23.380;2024-03-06T03:57:12;93830.13;;;7.09;99.26
11808;BME280;5961;42.640;23.380;2024-03-06T03:59:48;93841.47;;;7.18;98.96
11808;BME280;5961;42.640;23.380;2024-03-06T04:05:39;93838.34;;;7.08;98.45
11808;BME280;5961;42.640;23.380;2024-03-06T04:22:04;93861.72;;;6.72;96.30
11808;BME280;5961;42.640;23.380;2024-03-06T04:27:52;93861.09;;;6.57;97.35
11808;BME280;5961;42.640;23.380;2024-03-06T04:30:56;93862.50;;;6.55;97.73
11808;BME280;5961;42.640;23.380;2024-03-06T04:36:44;93859.69;;;6.60;98.10
11808;BME280;5961;42.640;23.380;2024-03-06T04:39:12;93867.16;;;6.58;98.25
11808;BME280;5961;42.640;23.380;2024-03-06T04:42:01;93866.72;;;6.65;99.11
11808;BME280;5961;42.640;23.380;2024-03-06T04:44:28;93865.59;;;6.66;99.50
11808;BME280;5961;42.640;23.380;2024-03-06T04:46:55;93872.13;;;6.68;100.00
11808;BME280;5961;42.640;23.380;2024-03-06T04:49:21;93870.59;;;6.67;100.00
11808;BME280;5961;42.640;23.380;2024-03-06T04:51:48;93870.88;;;6.74;99.95
11808;BME280;5961;42.640;23.380;2024-03-06T04:54:16;93870.75;;;6.79;99.88
11808;BME280;5961;42.640;23.380;2024-03-06T04:56:43;93872.44;;;6.84;99.77
11808;BME280;5961;42.640;23.380;2024-03-06T04:59:09;93890.44;;;6.90;99.69
11808;BME280;5961;42.640;23.380;2024-03-06T05:01:36;93868.69;;;6.93;99.55
11808;BME280;5961;42.640;23.380;2024-03-06T05:04:03;93879.25;;;6.93;99.07
11808;BME280;5961;42.640;23.380;2024-03-06T05:06:29;93887.66;;;6.95;99.73
11808;BME280;5961;42.640;23.380;2024-03-06T05:08:56;93887.94;;;7.02;99.46
11808;BME280;5961;42.640;23.380;2024-03-06T05:11:24;93888.91;;;7.06;99.02
11808;BME280;5961;42.640;23.380;2024-03-06T05:13:51;93890.13;;;7.09;99.06
11808;BME280;5961;42.640;23.380;2024-03-06T05:16:17;93891.38;;;7.11;98.77
11808;BME280;5961;42.640;23.380;2024-03-06T05:18:44;93893.38;;;7.14;98.41
11808;BME280;5961;42.640;23.380;2024-03-06T05:21:31;93895.72;;;7.16;98.71
11808;BME280;5961;42.640;23.380;2024-03-06T05:23:57;93902.53;;;7.26;98.69
11808;BME280;5961;42.640;23.380;2024-03-06T05:26:25;93892.56;;;7.23;97.95
11808;BME280;5961;42.640;23.380;2024-03-06T05:28:52;93898.16;;;7.30;97.81
11808;BME280;5961;42.640;23.380;2024-03-06T05:31:19;93901.25;;;7.32;98.05
11808;BME280;5961;42.640;23.380;2024-03-06T05:33:47;93902.38;;;7.31;97.68
11808;BME280;5961;42.640;23.380;2024-03-06T05:36:14;93899.13;;;7.25;96.82
11808;BME280;5961;42.640;23.380;2024-03-06T05:38:42;93894.03;;;7.03;97.01
11808;BME280;5961;42.640;23.380;2024-03-06T05:41:09;93909.09;;;7.02;100.00
11808;BME280;5961;42.640;23.380;2024-03-06T05:43:37;93917.94;;;6.89;100.00
11808;BME280;5961;42.640;23.380;2024-03-06T05:46:06;93915.63;;;6.79;100.00
11808;BME280;5961;42.640;23.380;2024-03-06T05:48:33;93917.00;;;6.59;100.00
11808;BME280;5961;42.640;23.380;2024-03-06T05:50:59;93923.53;;;6.53;100.00
11808;BME280;5961;42.640;23.380;2024-03-06T05:53:26;93905.38;;;6.52;99.42
11808;BME280;5961;42.640;23.380;2024-03-06T05:55:53;93914.34;;;6.34;99.45
11808;BME280;5961;42.640;23.380;2024-03-06T05:58:20;93923.34;;;6.33;100.00
11808;BME280;5961;42.640;23.380;2024-03-06T06:00:48;93918.84;;;6.33;100.00
11808;BME280;5961;42.640;23.380;2024-03-06T06:03:15;93927.22;;;6.35;100.00
11808;BME280;5961;42.640;23.380;2024-03-06T06:05:42;93914.34;;;6.25;100.00
11808;BME280;5961;42.640;23.380;2024-03-06T06:08:09;93920.50;;;6.12;100.00
11808;BME280;5961;42.640;23.380;2024-03-06T06:10:36;93923.78;;;6.26;100.00
11808;BME280;5961;42.640;23.380;2024-03-06T06:13:02;93931.41;;;6.28;100.00
11808;BME280;5961;42.640;23.380;2024-03-06T06:15:30;93920.03;;;6.10;100.00
11808;BME280;5961;42.640;23.380;2024-03-06T06:17:58;93929.47;;;6.02;100.00
11808;BME280;5961;42.640;23.380;2024-03-06T06:20:25;93934.19;;;6.23;100.00
11808;BME280;5961;42.640;23.380;2024-03-06T06:22:52;93929.22;;;6.30;100.00
11808;BME280;5961;42.640;23.380;2024-03-06T06:25:18;93928.63;;;6.33;100.00
11808;BME280;5961;42.640;23.380;2024-03-06T06:27:45;93927.38;;;6.39;100.00
11808;BME280;5961;42.640;23.380;2024-03-06T06:30:14;93928.19;;;6.39;100.00
11808;BME280;5961;42.640;23.380;2024-03-06T06:32:40;93936.25;;;6.43;100.00
11808;BME280;5961;42.640;23.380;2024-03-06T06:35:09;93937.06;;;6.52;100.00
11808;BME280;5961;42.640;23.380;2024-03-06T06:37:37;93928.81;;;6.62;100.00
11808;BME280;5961;42.640;23.380;2024-03-06T06:40:04;93927.28;;;6.70;100.00
11808;BME280;5961;42.640;23.380;2024-03-06T06:42:32;93928.06;;;6.70;100.00
11808;BME280;5961;42.640;23.380;2024-03-06T06:44:58;93932.41;;;6.66;100.00
11808;BME280;5961;42.640;23.380;2024-03-06T06:47:26;93922.94;;;6.74;100.00
11808;BME280;5961;42.640;23.380;2024-03-06T06:49:53;93925.41;;;6.79;100.00
11808;BME280;5961;42.640;23.380;2024-03-06T06:52:21;93925.09;;;6.80;100.00
11808;BME280;5961;42.640;23.380;2024-03-06T06:54:48;93930.25;;;6.85;100.00
11808;BME280;5961;42.640;23.380;2024-03-06T06:57:16;93932.72;;;6.90;100.00
11808;BME280;5961;42.640;23.380;2024-03-06T06:59:43;93939.06;;;6.89;100.00
11808;BME280;5961;42.640;23.380;2024-03-06T07:02:09;93942.50;;;6.90;100.00
11808;BME280;5961;42.640;23.380;2024-03-06T07:04:36;93944.38;;;6.98;100.00
11808;BME280;5961;42.640;23.380;2024-03-06T07:07:03;93943.75;;;7.09;100.00
11808;BME280;5961;42.640;23.380;2024-03-06T07:09:31;93934.25;;;7.17;100.00
11808;BME280;5961;42.640;23.380;2024-03-06T07:11:58;93935.81;;;7.18;100.00
11808;BME280;5961;42.640;23.380;2024-03-06T07:14:24;93930.09;;;7.16;100.00
11808;BME280;5961;42.640;23.380;2024-03-06T07:16:51;93928.97;;;7.26;100.00
11808;BME280;5961;42.640;23.380;2024-03-06T07:19:18;93934.41;;;7.29;100.00
11808;BME280;5961;42.640;23.380;2024-03-06T07:21:45;93933.00;;;7.32;100.00
11808;BME280;5961;42.640;23.380;2024-03-06T07:24:12;93939.84;;;7.33;100.00
11808;BME280;5961;42.640;23.380;2024-03-06T07:26:40;93939.84;;;7.33;100.00
11808;BME280;5961;42.640;23.380;2024-03-06T07:29:06;93938.44;;;7.27;100.00
11808;BME280;5961;42.640;23.380;2024-03-06T07:31:40;93929.44;;;7.28;100.00
11808;BME280;5961;42.640;23.380;2024-03-06T07:34:07;93939.53;;;7.26;100.00
11808;BME280;5961;42.640;23.380;2024-03-06T07:36:33;93935.81;;;7.27;100.00
11808;BME280;5961;42.640;23.380;2024-03-06T07:39:01;93916.53;;;7.17;100.00
11808;BME280;5961;42.640;23.380;2024-03-06T07:41:28;93935.34;;;7.33;100.00
11808;BME280;5961;42.640;23.380;2024-03-06T07:43:56;93941.84;;;7.44;100.00
11808;BME280;5961;42.640;23.380;2024-03-06T07:46:22;93941.50;;;7.54;99.80
11808;BME280;5961;42.640;23.380;2024-03-06T07:48:49;93939.78;;;7.50;100.00
11808;BME280;5961;42.640;23.380;2024-03-06T07:51:16;93940.72;;;7.54;100.00
11808;BME280;5961;42.640;23.380;2024-03-06T07:53:43;93941.94;;;7.65;100.00
11808;BME280;5961;42.640;23.380;2024-03-06T07:56:10;93941.50;;;7.63;99.94
11808;BME280;5961;42.640;23.380;2024-03-06T07:58:38;93937.28;;;7.70;100.00
11808;BME280;5961;42.640;23.380;2024-03-06T08:01:06;93937.09;;;7.76;100.00
11808;BME280;5961;42.640;23.380;2024-03-06T08:03:33;93940.78;;;7.83;99.53
11808;BME280;5961;42.640;23.380;2024-03-06T08:06:00;93929.75;;;7.81;99.62
11808;BME280;5961;42.640;23.380;2024-03-06T08:08:27;93950.56;;;8.00;99.37
11808;BME280;5961;42.640;23.380;2024-03-06T08:10:54;93950.53;;;8.08;99.12
11808;BME280;5961;42.640;23.380;2024-03-06T08:13:20;93951.25;;;8.17;98.34
11808;BME280;5961;42.640;23.380;2024-03-06T08:15:47;93949.66;;;8.25;97.46
11808;BME280;5961;42.640;23.380;2024-03-06T08:18:19;93947.13;;;8.37;97.54
11808;BME280;5961;42.640;23.380;2024-03-06T08:20:46;93949.75;;;8.46;96.55
11808;BME280;5961;42.640;23.380;2024-03-06T08:23:13;93949.38;;;8.56;95.83
11808;BME280;5961;42.640;23.380;2024-03-06T08:25:39;93949.78;;;8.66;95.18
11808;BME280;5961;42.640;23.380;2024-03-06T08:28:06;93947.97;;;8.79;94.97
11808;BME280;5961;42.640;23.380;2024-03-06T08:30:33;93952.25;;;8.92;93.62
11808;BME280;5961;42.640;23.380;2024-03-06T08:32:59;93952.94;;;9.01;93.52
11808;BME280;5961;42.640;23.380;2024-03-06T08:35:29;93946.81;;;9.09;92.91
11808;BME280;5961;42.640;23.380;2024-03-06T08:37:56;93948.28;;;9.19;92.47
11808;BME280;5961;42.640;23.380;2024-03-06T08:40:22;93944.63;;;9.11;92.32
11808;BME280;5961;42.640;23.380;2024-03-06T08:42:51;93951.31;;;9.29;91.42
11808;BME280;5961;42.640;23.380;2024-03-06T08:45:17;93948.03;;;9.32;91.05
11808;BME280;5961;42.640;23.380;2024-03-06T08:47:45;93947.81;;;9.37;90.50
11808;BME280;5961;42.640;23.380;2024-03-06T08:50:13;93950.06;;;9.48;90.04
11808;BME280;5961;42.640;23.380;2024-03-06T08:52:41;93952.31;;;9.58;89.57
11808;BME280;5961;42.640;23.380;2024-03-06T08:55:08;93955.75;;;9.70;89.03
11808;BME280;5961;42.640;23.380;2024-03-06T08:57:36;93957.69;;;9.82;87.65
11808;BME280;5961;42.640;23.380;2024-03-06T09:00:04;93957.91;;;9.89;88.09
11808;BME280;5961;42.640;23.380;2024-03-06T09:02:34;93950.84;;;9.93;87.87
11808;BME280;5961;42.640;23.380;2024-03-06T09:05:00;93959.06;;;10.00;88.00
11808;BME280;5961;42.640;23.380;2024-03-06T09:07:30;93958.06;;;10.05;87.74
11808;BME280;5961;42.640;23.380;2024-03-06T09:09:58;93955.00;;;10.15;87.85
11808;BME280;5961;42.640;23.380;2024-03-06T09:12:24;93960.44;;;10.18;87.31
11808;BME280;5961;42.640;23.380;2024-03-06T09:14:52;93968.19;;;10.23;85.97
11808;BME280;5961;42.640;23.380;2024-03-06T09:17:19;93968.19;;;10.23;84.45
11808;BME280;5961;42.640;23.380;2024-03-06T09:19:45;93977.47;;;10.29;84.71
11808;BME280;5961;42.640;23.380;2024-03-06T09:22:12;93962.53;;;10.37;84.06
11808;BME280;5961;42.640;23.380;2024-03-06T09:24:39;93962.75;;;10.44;84.01
11808;BME280;5961;42.640;23.380;2024-03-06T09:27:07;93966.31;;;10.48;83.21
11808;BME280;5961;42.640;23.380;2024-03-06T09:29:33;93960.34;;;10.51;82.62
11808;BME280;5961;42.640;23.380;2024-03-06T09:32:01;93965.53;;;10.60;81.27
11808;BME280;5961;42.640;23.380;2024-03-06T09:34:28;93952.56;;;10.58;81.26
11808;BME280;5961;42.640;23.380;2024-03-06T09:36:54;93957.09;;;10.70;80.83
11808;BME280;5961;42.640;23.380;2024-03-06T09:39:21;93958.66;;;10.71;80.93
11808;BME280;5961;42.640;23.380;2024-03-06T09:41:49;93961.97;;;10.80;80.60
11808;BME280;5961;42.640;23.380;2024-03-06T09:44:17;93943.91;;;10.73;80.53
11808;BME280;5961;42.640;23.380;2024-03-06T09:46:46;93953.53;;;10.90;79.41
11808;BME280;5961;42.640;23.380;2024-03-06T09:49:14;93940.25;;;10.78;79.38
11808;BME280;5961;42.640;23.380;2024-03-06T09:51:43;93954.97;;;10.99;79.36
11808;BME280;5961;42.640;23.380;2024-03-06T09:54:11;93950.97;;;11.06;78.43
11808;BME280;5961;42.640;23.380;2024-03-06T09:56:41;93957.13;;;11.10;77.20
11808;BME280;5961;42.640;23.380;2024-03-06T09:59:08;93956.56;;;11.16;76.64
11808;BME280;5961;42.640;23.380;2024-03-06T10:01:40;93945.25;;;11.19;76.62
11808;BME280;5961;42.640;23.380;2024-03-06T10:04:20;93945.00;;;11.24;76.85
11808;BME280;5961;42.640;23.380;2024-03-06T10:06:47;93946.31;;;11.30;76.79
11808;BME280;5961;42.640;23.380;2024-03-06T10:09:17;93938.97;;;11.39;76.12
11808;BME280;5961;42.640;23.380;2024-03-06T10:11:44;93939.59;;;11.48;75.94
11808;BME280;5961;42.640;23.380;2024-03-06T10:14:10;93931.81;;;11.55;75.92
11808;BME280;5961;42.640;23.380;2024-03-06T10:16:52;93931.56;;;11.61;75.83
11808;BME280;5961;42.640;23.380;2024-03-06T10:19:19;93904.16;;;11.44;75.37
11808;BME280;5961;42.640;23.380;2024-03-06T10:21:47;93929.09;;;11.68;74.68
11808;BME280;5961;42.640;23.380;2024-03-06T10:24:18;93930.00;;;11.72;74.84
11808;BME280;5961;42.640;23.380;2024-03-06T10:26:45;93936.25;;;11.79;74.78
11808;BME280;5961;42.640;23.380;2024-03-06T10:29:15;93933.00;;;11.86;73.69
11808;BME280;5961;42.640;23.380;2024-03-06T10:31:49;93927.25;;;11.84;73.00
11808;BME280;5961;42.640;23.380;2024-03-06T10:34:16;93928.97;;;11.92;72.07
11808;BME280;5961;42.640;23.380;2024-03-06T10:36:43;93920.72;;;11.97;71.72
11808;BME280;5961;42.640;23.380;2024-03-06T10:39:11;93921.59;;;12.01;71.41
11808;BME280;5961;42.640;23.380;2024-03-06T10:41:40;93919.44;;;12.06;71.17
11808;BME280;5961;42.640;23.380;2024-03-06T10:44:11;93928.63;;;12.09;70.33
11808;BME280;5961;42.640;23.380;2024-03-06T10:46:41;93919.53;;;12.10;70.04
11808;BME280;5961;42.640;23.380;2024-03-06T10:49:11;93905.13;;;12.11;69.71
11808;BME280;5961;42.640;23.380;2024-03-06T10:51:40;93901.31;;;12.12;69.70
11808;BME280;5961;42.640;23.380;2024-03-06T10:54:09;93898.22;;;12.10;69.46
11808;BME280;5961;42.640;23.380;2024-03-06T10:56:38;93867.81;;;11.95;68.86
11808;BME280;5961;42.640;23.380;2024-03-06T10:59:09;93886.47;;;12.27;68.50
11808;BME280;5961;42.640;23.380;2024-03-06T11:01:37;93877.84;;;12.33;68.45
11808;BME280;5961;42.640;23.380;2024-03-06T11:04:03;93885.31;;;12.43;67.65
11808;BME280;5961;42.640;23.380;2024-03-06T11:06:33;93880.22;;;12.54;66.34
11808;BME280;5961;42.640;23.380;2024-03-06T11:09:00;93879.34;;;12.65;65.76
11808;BME280;5961;42.640;23.380;2024-03-06T11:11:27;93877.50;;;12.70;65.93
11808;BME280;5961;42.640;23.380;2024-03-06T11:13:54;93864.31;;;12.77;65.05
11808;BME280;5961;42.640;23.380;2024-03-06T11:16:27;93863.34;;;12.85;63.69
11808;BME280;5961;42.640;23.380;2024-03-06T11:19:05;93863.22;;;12.97;64.41
11808;BME280;5961;42.640;23.380;2024-03-06T11:21:33;93860.00;;;13.07;62.87
11808;BME280;5961;42.640;23.380;2024-03-06T11:24:14;93852.34;;;13.25;62.67
11808;BME280;5961;42.640;23.380;2024-03-06T11:26:42;93841.34;;;13.26;61.90
11808;BME280;5961;42.640;23.380;2024-03-06T11:29:09;93855.50;;;13.49;61.30
11808;BME280;5961;42.640;23.380;2024-03-06T11:31:36;93844.09;;;13.52;59.84
11808;BME280;5961;42.640;23.380;2024-03-06T11:34:04;93839.72;;;13.63;59.68
11808;BME280;5961;42.640;23.380;2024-03-06T11:36:31;93833.38;;;13.71;58.05
11808;BME280;5961;42.640;23.380;2024-03-06T11:38:59;93834.72;;;13.85;56.57
11808;BME280;5961;42.640;23.380;2024-03-06T11:41:28;93823.28;;;13.84;57.17
11808;BME280;5961;42.640;23.380;2024-03-06T11:43:56;93835.25;;;13.94;56.31
11808;BME280;5961;42.640;23.380;2024-03-06T11:46:40;93817.34;;;13.94;56.63
11808;BME280;5961;42.640;23.380;2024-03-06T11:49:14;93826.38;;;13.86;56.91
11808;BME280;5961;42.640;23.380;2024-03-06T11:51:41;93811.16;;;13.90;57.21
11808;BME280;5961;42.640;23.380;2024-03-06T11:54:09;93821.19;;;13.97;57.53
11808;BME280;5961;42.640;23.380;2024-03-06T11:56:38;93812.84;;;13.98;55.85
11808;BME280;5961;42.640;23.380;2024-03-06T11:59:05;93815.44;;;13.95;55.15
11808;BME280;5961;42.640;23.380;2024-03-06T12:01:33;93806.31;;;13.96;55.99
11808;BME280;5961;42.640;23.380;2024-03-06T12:04:00;93807.06;;;13.96;55.89
11808;BME280;5961;42.640;23.380;2024-03-06T12:06:27;93799.72;;;13.90;56.23
11808;BME280;5961;42.640;23.380;2024-03-06T12:08:54;93802.78;;;13.92;56.13
11808;BME280;5961;42.640;23.380;2024-03-06T12:11:22;93798.22;;;13.92;55.52
11808;BME280;5961;42.640;23.380;2024-03-06T12:13:51;93792.97;;;13.99;55.35
11808;BME280;5961;42.640;23.380;2024-03-06T12:16:18;93798.50;;;14.10;55.76
11808;BME280;5961;42.640;23.380;2024-03-06T12:18:45;93796.03;;;14.24;55.96
11808;BME280;5961;42.640;23.380;2024-03-06T12:21:12;93788.97;;;14.35;55.39
11808;BME280;5961;42.640;23.380;2024-03-06T12:23:39;93791.00;;;14.45;55.57
11808;BME280;5961;42.640;23.380;2024-03-06T12:26:06;93788.94;;;14.61;54.40
11808;BME280;5961;42.640;23.380;2024-03-06T12:28:36;93782.25;;;14.78;54.84
11808;BME280;5961;42.640;23.380;2024-03-06T12:31:03;93791.25;;;14.96;53.03
11808;BME280;5961;42.640;23.380;2024-03-06T12:33:30;93781.53;;;15.14;54.04
11808;BME280;5961;42.640;23.380;2024-03-06T12:36:04;93779.44;;;15.34;53.26
11808;BME280;5961;42.640;23.380;2024-03-06T12:38:32;93761.78;;;15.29;51.65
11808;BME280;5961;42.640;23.380;2024-03-06T12:40:59;93780.31;;;15.45;51.08
11808;BME280;5961;42.640;23.380;2024-03-06T12:43:26;93785.00;;;15.52;50.78
11808;BME280;5961;42.640;23.380;2024-03-06T12:45:55;93782.28;;;15.48;50.61
11808;BME280;5961;42.640;23.380;2024-03-06T12:48:23;93771.81;;;15.36;50.51
11808;BME280;5961;42.640;23.380;2024-03-06T12:50:50;93769.38;;;15.24;50.70
11808;BME280;5961;42.640;23.380;2024-03-06T12:53:20;93763.81;;;15.03;52.14
11808;BME280;5961;42.640;23.380;2024-03-06T12:55:46;93768.28;;;14.92;57.56
11808;BME280;5961;42.640;23.380;2024-03-06T12:58:14;93764.88;;;14.61;60.01
11808;BME280;5961;42.640;23.380;2024-03-06T13:00:40;93777.91;;;14.37;61.94
11808;BME280;5961;42.640;23.380;2024-03-06T13:03:09;93767.00;;;14.22;62.99
11808;BME280;5961;42.640;23.380;2024-03-06T13:05:35;93773.31;;;14.11;63.00
11808;BME280;5961;42.640;23.380;2024-03-06T13:08:02;93767.69;;;13.93;63.91
11808;BME280;5961;42.640;23.380;2024-03-06T13:10:29;93777.00;;;13.77;64.67
11808;BME280;5961;42.640;23.380;2024-03-06T13:12:56;93771.13;;;13.67;65.29
11808;BME280;5961;42.640;23.380;2024-03-06T13:15:22;93782.47;;;13.61;66.13
11808;BME280;5961;42.640;23.380;2024-03-06T13:17:49;93782.47;;;13.61;66.37
11808;BME280;5961;42.640;23.380;2024-03-06T13:20:18;93782.66;;;13.71;66.45
11808;BME280;5961;42.640;23.380;2024-03-06T13:22:45;93765.94;;;13.78;66.30
11808;BME280;5961;42.640;23.380;2024-03-06T13:25:12;93774.25;;;13.96;65.55
11808;BME280;5961;42.640;23.380;2024-03-06T13:27:38;93772.59;;;14.14;65.44
11808;BME280;5961;42.640;23.380;2024-03-06T13:30:06;93755.44;;;14.15;63.72
11808;BME280;5961;42.640;23.380;2024-03-06T13:32:34;93769.31;;;14.50;63.00
11808;BME280;5961;42.640;23.380;2024-03-06T13:35:01;93782.53;;;14.69;61.82
11808;BME280;5961;42.640;23.380;2024-03-06T13:37:29;93771.16;;;14.76;60.03
11808;BME280;5961;42.640;23.380;2024-03-06T13:39:55;93781.19;;;14.82;60.09
11808;BME280;5961;42.640;23.380;2024-03-06T13:42:26;93773.16;;;14.82;59.30
11808;BME280;5961;42.640;23.380;2024-03-06T13:44:53;93772.03;;;14.83;59.59
11808;BME280;5961;42.640;23.380;2024-03-06T13:47:21;93771.94;;;14.76;59.06
11808;BME280;5961;42.640;23.380;2024-03-06T13:49:47;93771.09;;;14.72;59.72
11808;BME280;5961;42.640;23.380;2024-03-06T13:52:14;93757.13;;;14.53;58.90
11808;BME280;5961;42.640;23.380;2024-03-06T13:54:46;93766.66;;;14.54;59.81
11808;BME280;5961;42.640;23.380;2024-03-06T13:57:13;93760.69;;;14.34;59.23
11808;BME280;5961;42.640;23.380;2024-03-06T13:59:40;93769.00;;;14.29;59.56
11808;BME280;5961;42.640;23.380;2024-03-06T14:02:08;93763.16;;;14.20;60.59